Time;durP1;ratioP1;P1;durP2;ratioP2;P2;SDS_P1;SDS_P2;PMS_P1;PMS_P2;Temp;Humidity;BMP_temperature;BMP_pressure;BME280_temperature;BME280_humidity;BME280_pressure;Samples;Min_cycle;Max_cycle;Signal;HPM_P1;HPM_P2
2023/09/26 00:02:40;;;;;;;12.40;11.30;;;;;;;18.77;77.90;93220.63;5043327;28;20184;-83
2023/09/26 00:05:08;;;;;;;13.10;10.40;;;;;;;18.74;77.40;93218.59;5046108;28;20185;-83
2023/09/26 00:07:34;;;;;;;12.73;10.73;;;;;;;18.73;77.59;93217.81;5056571;28;20199;-82
2023/09/26 00:10:00;;;;;;;11.93;10.60;;;;;;;18.58;78.50;93207.72;5036541;28;20188;-83
2023/09/26 00:12:26;;;;;;;11.17;10.17;;;;;;;18.71;76.65;93213.91;5034549;28;20184;-82
2023/09/26 00:14:51;;;;;;;17.30;10.83;;;;;;;18.72;76.71;93215.47;5044133;28;20230;-82
2023/09/26 00:17:17;;;;;;;12.37;10.90;;;;;;;18.73;76.78;93211.72;5045218;28;20193;-82
2023/09/26 00:19:42;;;;;;;12.00;10.80;;;;;;;18.62;77.96;93202.56;5038375;28;20227;-82
2023/09/26 00:22:08;;;;;;;13.00;11.13;;;;;;;18.76;78.73;93219.03;5045343;28;20221;-82
2023/09/26 00:24:33;;;;;;;16.63;11.30;;;;;;;18.57;80.04;93213.28;5037225;28;20224;-82
2023/09/26 00:26:58;;;;;;;19.73;11.70;;;;;;;18.57;80.24;93222.00;5038674;28;20204;-83
2023/09/26 00:29:24;;;;;;;12.30;11.27;;;;;;;18.29;81.59;93214.69;5045514;28;20241;-83
2023/09/26 00:31:51;;;;;;;13.10;11.30;;;;;;;18.05;82.66;93201.13;5038148;28;20195;-82
2023/09/26 00:34:17;;;;;;;19.37;11.17;;;;;;;18.18;83.18;93211.56;5043662;28;20215;-82
2023/09/26 00:36:44;;;;;;;16.87;12.67;;;;;;;18.21;83.18;93216.22;5042409;28;20175;-82
2023/09/26 00:39:09;;;;;;;19.13;11.07;;;;;;;18.13;84.19;93219.66;5028820;28;20225;-84
2023/09/26 00:41:35;;;;;;;19.60;12.27;;;;;;;18.11;84.94;93213.09;5038999;28;20254;-84
2023/09/26 00:44:00;;;;;;;17.60;11.83;;;;;;;18.03;86.00;93209.38;5042044;28;20216;-83
2023/09/26 00:46:27;;;;;;;11.23;10.50;;;;;;;17.91;86.70;93205.78;5038511;28;20244;-83
2023/09/26 00:48:52;;;;;;;12.93;11.67;;;;;;;17.96;86.33;93201.09;5034769;28;20309;-80
2023/09/26 00:51:18;;;;;;;21.37;12.33;;;;;;;17.97;86.33;93200.03;5056185;28;20178;-82
2023/09/26 00:53:44;;;;;;;13.53;11.97;;;;;;;17.84;86.93;93200.94;5046317;28;20278;-82
2023/09/26 00:56:09;;;;;;;12.63;11.40;;;;;;;17.83;86.81;93199.41;5037817;28;20183;-83
2023/09/26 00:58:35;;;;;;;14.13;12.63;;;;;;;17.68;87.17;93191.13;5036707;28;20928;-83
2023/09/26 01:01:05;;;;;;;18.23;12.13;;;;;;;17.82;87.60;93202.34;5039267;28;20276;-83
2023/09/26 01:03:30;;;;;;;14.33;11.93;;;;;;;17.73;87.99;93214.75;5045345;28;20241;-85
2023/09/26 01:05:57;;;;;;;16.30;12.63;;;;;;;17.74;88.64;93213.66;5045985;28;20192;-83
2023/09/26 01:08:22;;;;;;;14.63;12.10;;;;;;;17.72;88.57;93202.63;5038077;28;20235;-83
2023/09/26 01:10:48;;;;;;;16.63;12.20;;;;;;;17.80;87.84;93207.16;5032159;28;20188;-83
2023/09/26 01:13:13;;;;;;;13.53;12.03;;;;;;;17.68;88.76;93199.84;5034726;28;20238;-82
2023/09/26 01:15:41;;;;;;;14.40;12.00;;;;;;;17.68;88.50;93202.47;5033015;28;20227;-83
2023/09/26 01:18:08;;;;;;;13.17;12.03;;;;;;;17.65;89.03;93204.94;5046649;28;20219;-81
2023/09/26 01:20:34;;;;;;;13.17;11.87;;;;;;;17.56;88.49;93200.41;5045184;28;20340;-84
2023/09/26 01:23:05;;;;;;;16.73;12.13;;;;;;;17.70;88.27;93199.53;5039227;28;20234;-82
2023/09/26 01:25:31;;;;;;;14.20;11.60;;;;;;;17.66;88.28;93198.56;5037946;28;20183;-84
2023/09/26 01:28:01;;;;;;;13.67;12.43;;;;;;;17.65;88.45;93197.03;5043799;28;20237;-83
2023/09/26 01:30:27;;;;;;;13.93;12.50;;;;;;;17.62;88.36;93197.63;5047135;28;20189;-82
2023/09/26 01:32:52;;;;;;;16.33;12.23;;;;;;;17.56;88.39;93184.56;5029815;28;20243;-84
2023/09/26 01:35:18;;;;;;;13.30;11.43;;;;;;;17.60;88.68;93196.06;5039283;28;20186;-78
2023/09/26 01:37:43;;;;;;;12.63;11.33;;;;;;;17.54;88.67;93196.53;5039872;28;20223;-82
2023/09/26 01:40:10;;;;;;;15.40;12.03;;;;;;;17.55;88.45;93203.34;5041852;28;20214;-82
2023/09/26 01:42:36;;;;;;;13.30;11.97;;;;;;;17.48;88.53;93198.53;5041850;28;20187;-81
2023/09/26 01:45:01;;;;;;;18.43;12.30;;;;;;;17.47;88.93;93212.81;5049449;28;20183;-82
2023/09/26 01:47:40;;;;;;;12.77;11.47;;;;;;;17.42;89.44;93210.28;5048296;28;20218;-82
2023/09/26 01:50:07;;;;;;;13.77;12.40;;;;;;;17.05;88.14;93163.25;5036467;28;20221;-82
2023/09/26 01:52:35;;;;;;;16.10;12.10;;;;;;;17.30;88.42;93202.16;5035957;28;20183;-81
2023/09/26 01:55:05;;;;;;;13.33;11.97;;;;;;;17.27;88.54;93197.50;5037568;28;20190;-82
2023/09/26 01:57:32;;;;;;;14.83;13.33;;;;;;;17.26;88.25;93201.19;5041638;28;20188;-77
2023/09/26 02:00:12;;;;;;;13.80;12.37;;;;;;;17.27;88.25;93202.78;5051223;28;20207;-82
2023/09/26 02:02:39;;;;;;;13.97;11.83;;;;;;;17.33;87.72;93203.41;5044170;28;20187;-82
2023/09/26 02:05:09;;;;;;;13.60;12.20;;;;;;;17.30;87.45;93215.34;5040320;28;20187;-82
2023/09/26 02:07:35;;;;;;;17.23;12.70;;;;;;;17.38;87.73;93211.97;5048204;28;20211;-82
2023/09/26 02:10:03;;;;;;;19.20;12.03;;;;;;;17.29;86.59;93213.78;5051587;28;20190;-83
2023/09/26 02:12:28;;;;;;;16.03;12.63;;;;;;;17.26;86.47;93216.28;5043050;28;20247;-83
2023/09/26 02:14:54;;;;;;;12.07;11.03;;;;;;;17.22;86.25;93212.66;5049953;28;20223;-80
2023/09/26 02:17:19;;;;;;;16.67;12.20;;;;;;;17.17;85.92;93202.25;5051682;28;20194;-82
2023/09/26 02:19:45;;;;;;;12.97;11.70;;;;;;;17.37;86.16;93213.03;5043124;28;20260;-82
2023/09/26 02:22:10;;;;;;;13.57;12.27;;;;;;;17.42;85.29;93215.56;5059710;28;20211;-82
2023/09/26 02:24:35;;;;;;;15.20;12.20;;;;;;;17.36;85.71;93213.34;5040902;28;20242;-83
2023/09/26 02:27:01;;;;;;;20.10;11.40;;;;;;;17.24;85.88;93200.75;5042743;28;20174;-82
2023/09/26 02:29:28;;;;;;;13.00;11.47;;;;;;;17.37;85.51;93214.91;5035573;28;20219;-83
2023/09/26 02:31:53;;;;;;;18.23;12.27;;;;;;;17.31;85.55;93213.47;5042560;28;20174;-83
2023/09/26 02:34:19;;;;;;;13.27;11.97;;;;;;;17.01;85.96;93195.81;5043571;28;20213;-78
2023/09/26 02:36:44;;;;;;;13.20;11.80;;;;;;;17.12;85.43;93210.31;5040984;28;20172;-83
2023/09/26 02:39:10;;;;;;;24.23;12.93;;;;;;;17.12;84.43;93221.63;5035323;28;20229;-83
2023/09/26 02:41:35;;;;;;;14.73;11.23;;;;;;;17.28;84.35;93224.66;5047095;28;20207;-83
2023/09/26 02:44:03;;;;;;;15.17;11.90;;;;;;;17.10;83.63;93197.41;5050140;28;20219;-83
2023/09/26 02:46:29;;;;;;;13.33;12.00;;;;;;;17.08;82.70;93196.94;5041603;28;20181;-83
2023/09/26 02:48:54;;;;;;;11.97;10.53;;;;;;;17.16;81.27;93204.13;5039784;28;20226;-83
2023/09/26 02:51:19;;;;;;;12.13;10.83;;;;;;;17.35;79.77;93212.56;5042556;28;20193;-83
2023/09/26 02:53:45;;;;;;;13.50;10.77;;;;;;;17.31;77.88;93218.75;5044642;28;20237;-80
2023/09/26 02:56:11;;;;;;;11.13;10.07;;;;;;;17.32;78.17;93215.06;5053829;28;20182;-83
2023/09/26 02:58:36;;;;;;;11.83;10.67;;;;;;;17.23;75.49;93217.63;5044000;28;20233;-82
2023/09/26 03:01:03;;;;;;;12.37;11.07;;;;;;;17.28;75.39;93225.44;5040282;28;20195;-82
2023/09/26 03:03:29;;;;;;;11.90;10.77;;;;;;;17.15;74.06;93218.38;5040852;28;20366;-84
2023/09/26 03:05:55;;;;;;;12.17;10.93;;;;;;;17.32;73.88;93233.53;5050977;28;20194;-82
2023/09/26 03:08:20;;;;;;;19.60;10.47;;;;;;;17.34;74.39;93232.13;5045521;28;20242;-79
2023/09/26 03:10:45;;;;;;;12.30;11.10;;;;;;;17.26;73.77;93238.16;5034172;28;20210;-78
2023/09/26 03:13:11;;;;;;;13.60;10.40;;;;;;;17.17;72.52;93218.84;5037906;28;20222;-78
2023/09/26 03:15:36;;;;;;;17.83;10.67;;;;;;;17.19;72.32;93223.84;5036695;28;20201;-78
2023/09/26 03:18:02;;;;;;;10.50;9.47;;;;;;;17.23;71.72;93225.56;5061725;28;20246;-79
2023/09/26 03:20:27;;;;;;;11.77;9.73;;;;;;;17.21;71.86;93230.34;5040741;28;20241;-79
2023/09/26 03:22:53;;;;;;;12.37;9.77;;;;;;;17.20;70.46;93239.38;5037548;28;20232;-79
2023/09/26 03:25:19;;;;;;;12.23;10.33;;;;;;;17.27;70.29;93239.72;5048912;28;20194;-78
2023/09/26 03:27:46;;;;;;;15.47;10.63;;;;;;;17.18;70.69;93249.44;5041473;28;20218;-78
2023/09/26 03:30:14;;;;;;;11.33;10.17;;;;;;;17.03;71.05;93231.34;5030905;28;20187;-79
2023/09/26 03:32:40;;;;;;;15.30;10.80;;;;;;;17.22;69.83;93237.22;5045609;28;20192;-78
2023/09/26 03:35:06;;;;;;;10.77;9.77;;;;;;;17.28;70.38;93240.47;5034283;28;20222;-79
2023/09/26 03:37:32;;;;;;;11.97;10.57;;;;;;;17.18;71.51;93236.25;5031376;28;20210;-78
2023/09/26 03:39:58;;;;;;;16.73;10.47;;;;;;;16.91;70.55;93212.69;5040054;28;20236;-79
2023/09/26 03:42:23;;;;;;;14.07;10.30;;;;;;;17.22;71.09;93239.84;5036792;28;20848;-80
2023/09/26 03:44:49;;;;;;;21.67;11.47;;;;;;;17.23;70.16;93244.03;5037500;28;20218;-78
2023/09/26 03:47:14;;;;;;;21.00;11.20;;;;;;;17.26;70.29;93243.41;5043146;28;20198;-79
2023/09/26 03:49:39;;;;;;;10.77;10.07;;;;;;;17.32;69.24;93239.56;5048236;28;20234;-80
2023/09/26 03:52:05;;;;;;;10.87;9.77;;;;;;;17.28;68.10;93229.94;5042753;28;20234;-79
2023/09/26 03:54:30;;;;;;;10.80;9.30;;;;;;;17.12;68.55;93245.38;5036025;28;20222;-80
2023/09/26 03:56:56;;;;;;;11.10;10.20;;;;;;;17.12;68.62;93255.16;5045407;28;20205;-80
2023/09/26 03:59:21;;;;;;;12.50;10.33;;;;;;;17.02;69.13;93243.00;5047817;28;20225;-79
2023/09/26 04:01:47;;;;;;;11.47;10.43;;;;;;;17.18;67.89;93260.00;5048605;28;20189;-79
2023/09/26 04:04:13;;;;;;;11.17;10.00;;;;;;;17.07;70.00;93247.38;5044288;28;20223;-79
2023/09/26 04:06:38;;;;;;;13.80;11.77;;;;;;;16.89;70.15;93246.47;5039399;28;20236;-79
2023/09/26 04:09:04;;;;;;;11.87;10.77;;;;;;;16.98;71.61;93252.59;5048813;28;20217;-79
2023/09/26 04:11:29;;;;;;;12.50;10.70;;;;;;;17.01;70.84;93251.97;5040973;28;20178;-80
2023/09/26 04:13:55;;;;;;;19.87;10.27;;;;;;;17.02;71.29;93256.19;5039437;28;20233;-79
2023/09/26 04:16:20;;;;;;;13.13;10.20;;;;;;;16.91;71.35;93254.88;5038083;28;20179;-79
2023/09/26 04:18:46;;;;;;;16.10;10.43;;;;;;;16.84;70.91;93251.88;5038925;28;20225;-78
2023/09/26 04:21:11;;;;;;;14.53;10.30;;;;;;;16.82;71.33;93237.44;5039726;28;20246;-79
2023/09/26 04:23:37;;;;;;;16.47;11.00;;;;;;;16.91;72.00;93249.59;5031735;28;20221;-73
2023/09/26 04:26:14;;;;;;;11.23;10.03;;;;;;;16.78;71.07;93258.34;5030082;28;20175;-76
2023/09/26 04:28:40;;;;;;;12.53;9.73;;;;;;;16.84;71.05;93259.78;5038117;28;20229;-75
2023/09/26 04:31:13;;;;;;;14.43;10.00;;;;;;;16.91;71.77;93265.44;5034155;28;20297;-76
2023/09/26 04:33:38;;;;;;;19.50;10.37;;;;;;;16.89;72.51;93258.88;5039810;28;20234;-77
2023/09/26 04:36:04;;;;;;;12.53;11.23;;;;;;;16.78;71.67;93260.22;5045744;28;20195;-78
2023/09/26 04:38:30;;;;;;;13.63;10.83;;;;;;;16.81;72.64;93257.75;5046931;28;20241;-75
2023/09/26 04:41:00;;;;;;;10.97;9.87;;;;;;;16.84;72.60;93256.38;5042352;28;20209;-78
2023/09/26 04:43:26;;;;;;;17.40;10.70;;;;;;;16.93;72.42;93250.09;5045771;28;20258;-76
2023/09/26 04:45:51;;;;;;;11.00;9.87;;;;;;;16.94;72.53;93256.91;5044684;28;20193;-76
2023/09/26 04:48:16;;;;;;;15.17;10.10;;;;;;;16.79;73.34;93253.88;5045608;28;20244;-80
2023/09/26 04:50:42;;;;;;;11.93;10.70;;;;;;;16.92;73.54;93264.34;5037967;28;20272;-73
2023/09/26 04:53:08;;;;;;;11.90;10.90;;;;;;;17.11;73.31;93274.69;5039976;28;20230;-74
2023/09/26 04:55:36;;;;;;;15.07;11.27;;;;;;;17.00;72.86;93265.47;5048314;28;20194;-75
2023/09/26 04:58:02;;;;;;;15.97;10.53;;;;;;;17.11;72.98;93272.06;5035653;28;20234;-75
2023/09/26 05:00:28;;;;;;;12.67;11.37;;;;;;;17.15;72.52;93247.41;5044347;28;20277;-75
2023/09/26 05:02:54;;;;;;;18.93;11.03;;;;;;;17.33;72.04;93270.19;5035838;28;20237;-76
2023/09/26 05:05:19;;;;;;;14.37;10.77;;;;;;;17.33;72.19;93269.38;5041679;28;20182;-75
2023/09/26 05:07:45;;;;;;;14.97;11.33;;;;;;;17.48;71.60;93266.38;5042891;28;20214;-80
2023/09/26 05:10:12;;;;;;;15.60;10.00;;;;;;;17.52;71.01;93276.06;5039830;28;20189;-76
2023/09/26 05:12:40;;;;;;;11.30;10.40;;;;;;;17.33;71.10;93272.81;5040512;28;20202;-77
2023/09/26 05:15:13;;;;;;;20.70;10.77;;;;;;;17.51;71.16;93276.31;5044986;28;20205;-76
2023/09/26 05:17:47;;;;;;;14.17;11.20;;;;;;;17.34;71.45;93270.94;5039512;28;20284;-75
2023/09/26 05:20:13;;;;;;;15.37;10.30;;;;;;;17.48;72.17;93284.84;5039748;28;20214;-76
2023/09/26 05:22:41;;;;;;;17.10;10.37;;;;;;;17.44;72.71;93271.50;5039597;28;20238;-76
2023/09/26 05:25:07;;;;;;;13.53;10.33;;;;;;;17.62;70.87;93285.53;5030288;28;20192;-75
2023/09/26 05:27:33;;;;;;;11.57;9.93;;;;;;;17.87;70.25;93295.44;5041101;28;20206;-75
2023/09/26 05:29:58;;;;;;;12.43;11.23;;;;;;;17.71;71.46;93286.38;5033929;28;20187;-75
2023/09/26 05:32:23;;;;;;;18.60;10.17;;;;;;;17.77;70.35;93284.38;5047519;28;20196;-75
2023/09/26 05:34:49;;;;;;;18.23;9.67;;;;;;;17.92;70.53;93283.94;5041396;28;20217;-76
2023/09/26 05:37:14;;;;;;;12.33;10.47;;;;;;;17.98;70.87;93285.38;5051304;28;20222;-75
2023/09/26 05:39:39;;;;;;;12.50;10.60;;;;;;;18.01;69.42;93290.81;5043511;28;20325;-75
2023/09/26 05:42:05;;;;;;;17.43;9.67;;;;;;;18.05;69.90;93285.69;5040989;28;20186;-75
2023/09/26 05:44:30;;;;;;;14.90;10.67;;;;;;;17.92;70.75;93278.66;5039913;28;20526;-75
2023/09/26 05:46:56;;;;;;;16.50;10.50;;;;;;;17.84;69.71;93279.44;5039276;28;20211;-75
2023/09/26 05:49:22;;;;;;;11.77;10.57;;;;;;;17.90;70.61;93288.78;5046548;28;20218;-76
2023/09/26 05:51:47;;;;;;;18.70;9.57;;;;;;;18.41;66.18;93288.91;5039767;28;20211;-77
2023/09/26 05:54:13;;;;;;;11.73;9.70;;;;;;;18.27;67.10;93288.22;5042696;28;20214;-75
2023/09/26 05:56:38;;;;;;;11.83;10.20;;;;;;;18.18;69.22;93285.56;5044067;28;20245;-74
2023/09/26 05:59:04;;;;;;;11.33;10.30;;;;;;;17.82;69.78;93255.94;5045980;28;20231;-73
2023/09/26 06:01:29;;;;;;;18.40;10.13;;;;;;;18.59;68.24;93293.91;5045353;28;20196;-77
2023/09/26 06:03:54;;;;;;;16.33;12.53;;;;;;;18.56;68.37;93296.38;5047513;28;20223;-75
2023/09/26 06:06:20;;;;;;;15.80;10.47;;;;;;;18.42;69.87;93293.09;5039940;28;20203;-77
2023/09/26 06:08:46;;;;;;;19.70;10.97;;;;;;;18.28;69.10;93289.78;5038117;28;20227;-73
2023/09/26 06:11:11;;;;;;;11.17;10.03;;;;;;;18.38;66.18;93300.09;5051287;28;20226;-76
2023/09/26 06:13:39;;;;;;;13.20;9.87;;;;;;;18.32;68.54;93298.66;5045330;28;20239;-74
2023/09/26 06:16:05;;;;;;;11.37;10.17;;;;;;;18.61;67.58;93299.66;5035970;28;20211;-76
2023/09/26 06:18:30;;;;;;;15.63;10.03;;;;;;;18.65;67.08;93295.31;5045804;28;20229;-76
2023/09/26 06:20:57;;;;;;;13.23;11.20;;;;;;;18.51;69.62;93288.59;5043745;28;20231;-77
2023/09/26 06:23:23;;;;;;;12.90;10.70;;;;;;;18.36;68.44;93286.38;5044879;28;20218;-74
2023/09/26 06:25:59;;;;;;;11.63;10.53;;;;;;;18.63;67.76;93296.72;5044536;28;20261;-74
2023/09/26 06:28:25;;;;;;;13.77;10.90;;;;;;;18.53;66.34;93287.22;5040691;28;20211;-73
2023/09/26 06:30:51;;;;;;;13.80;10.53;;;;;;;18.67;66.69;93293.13;5045122;28;20184;-73
2023/09/26 06:33:16;;;;;;;20.13;10.87;;;;;;;18.85;65.72;93288.59;5043129;28;20228;-74
2023/09/26 06:35:42;;;;;;;17.33;10.93;;;;;;;18.86;66.37;93298.09;5044415;28;20195;-73
2023/09/26 06:38:07;;;;;;;14.70;10.87;;;;;;;18.91;66.23;93297.97;5049894;28;20270;-74
2023/09/26 06:40:33;;;;;;;17.57;9.67;;;;;;;18.89;66.65;93289.53;5048544;28;20203;-74
2023/09/26 06:43:00;;;;;;;10.73;9.70;;;;;;;18.80;66.64;93299.34;5040679;28;20291;-74
2023/09/26 06:45:27;;;;;;;14.33;9.87;;;;;;;18.99;66.85;93294.50;5044125;28;20187;-74
2023/09/26 06:47:53;;;;;;;15.93;10.43;;;;;;;18.93;68.67;93293.88;5044158;28;20231;-75
2023/09/26 06:50:19;;;;;;;12.27;9.57;;;;;;;18.91;67.99;93300.59;5038731;28;20199;-76
2023/09/26 06:52:44;;;;;;;17.10;11.73;;;;;;;19.00;68.17;93280.94;5045984;28;20204;-76
2023/09/26 06:55:10;;;;;;;10.63;9.73;;;;;;;19.37;66.10;93300.72;5043912;28;20204;-74
2023/09/26 06:57:39;;;;;;;12.27;10.33;;;;;;;19.59;65.33;93303.16;5031488;28;20195;-76
2023/09/26 07:00:05;;;;;;;16.63;11.67;;;;;;;19.37;66.41;93298.06;5033306;28;20222;-76
2023/09/26 07:02:31;;;;;;;14.70;10.87;;;;;;;19.53;66.84;93295.69;5048503;28;20207;-77
2023/09/26 07:04:57;;;;;;;19.00;10.07;;;;;;;19.50;67.16;93298.97;5044769;28;20204;-77
2023/09/26 07:07:23;;;;;;;13.63;10.33;;;;;;;19.68;66.36;93303.91;5045352;28;20176;-77
2023/09/26 07:09:48;;;;;;;13.03;11.33;;;;;;;19.68;66.94;93301.25;5051616;28;20245;-79
2023/09/26 07:12:14;;;;;;;16.43;9.73;;;;;;;19.62;66.86;93304.38;5036529;28;20189;-75
2023/09/26 07:14:39;;;;;;;14.70;10.23;;;;;;;19.81;67.10;93302.13;5038509;28;20217;-76
2023/09/26 07:17:07;;;;;;;13.97;9.17;;;;;;;19.81;68.04;93294.19;5032103;28;20188;-78
2023/09/26 07:19:32;;;;;;;12.43;9.27;;;;;;;19.91;66.45;93297.25;5031484;28;20242;-77
2023/09/26 07:21:58;;;;;;;13.10;9.93;;;;;;;19.90;66.99;93298.34;5043734;28;20205;-75
2023/09/26 07:24:24;;;;;;;15.13;9.97;;;;;;;20.03;67.01;93300.00;5039363;28;20275;-75
2023/09/26 07:26:50;;;;;;;14.90;10.67;;;;;;;20.34;67.14;93300.47;5035958;28;20200;-79
2023/09/26 07:29:16;;;;;;;12.70;10.30;;;;;;;20.27;65.16;93299.44;5041992;28;20230;-77
2023/09/26 07:31:41;;;;;;;15.17;10.93;;;;;;;20.29;65.46;93299.91;5039101;28;20221;-78
2023/09/26 07:34:07;;;;;;;11.03;10.13;;;;;;;20.24;66.70;93303.53;5056749;28;20234;-76
2023/09/26 07:36:32;;;;;;;12.17;10.97;;;;;;;20.43;65.94;93293.28;5044400;28;20193;-77
2023/09/26 07:38:58;;;;;;;13.27;11.30;;;;;;;20.45;64.36;93296.34;5042558;28;20309;-74
2023/09/26 07:41:23;;;;;;;14.00;10.70;;;;;;;19.87;66.10;93277.78;5044462;28;20225;-73
2023/09/26 07:43:48;;;;;;;11.20;10.07;;;;;;;19.95;65.32;93292.88;5048384;28;20214;-74
2023/09/26 07:46:14;;;;;;;18.43;10.97;;;;;;;19.77;65.01;93287.94;5054502;28;20196;-74
2023/09/26 07:48:40;;;;;;;18.37;10.57;;;;;;;19.81;65.58;93286.22;5039727;28;20347;-74
2023/09/26 07:51:07;;;;;;;10.63;9.63;;;;;;;19.89;65.97;93288.84;5037995;28;20207;-74
2023/09/26 07:53:33;;;;;;;13.70;10.63;;;;;;;20.11;66.15;93287.81;5041595;28;20230;-73
2023/09/26 07:55:59;;;;;;;18.77;11.10;;;;;;;20.23;64.24;93286.03;5044236;28;20194;-75
2023/09/26 07:58:25;;;;;;;16.27;11.00;;;;;;;20.24;62.68;93273.56;5043811;28;20283;-76
2023/09/26 08:00:53;;;;;;;24.33;11.23;;;;;;;20.38;63.65;93288.16;5047017;28;20205;-75
2023/09/26 08:03:19;;;;;;;11.10;10.03;;;;;;;20.54;63.26;93281.19;5043671;28;20316;-75
2023/09/26 08:05:44;;;;;;;17.17;11.60;;;;;;;20.50;63.40;93274.16;5053681;28;20199;-74
2023/09/26 08:08:09;;;;;;;12.03;10.70;;;;;;;20.60;63.21;93279.88;5043512;28;20217;-75
2023/09/26 08:10:38;;;;;;;17.90;11.47;;;;;;;20.74;61.01;93282.28;5041306;28;20247;-75
2023/09/26 08:13:05;;;;;;;14.02;10.50;;;;;;;20.52;61.14;93277.28;5037821;28;20228;-75
2023/09/26 08:15:31;;;;;;;11.10;9.93;;;;;;;20.61;61.61;93276.13;5037213;28;20245;-76
2023/09/26 08:17:57;;;;;;;15.88;10.00;;;;;;;20.59;60.82;93262.41;5047665;28;20241;-76
2023/09/26 08:20:24;;;;;;;22.55;10.25;;;;;;;20.54;61.34;93262.59;5040536;28;20220;-75
2023/09/26 08:22:49;;;;;;;17.20;10.20;;;;;;;20.61;61.05;93265.50;5038464;28;20199;-73
2023/09/26 08:25:15;;;;;;;11.47;10.33;;;;;;;20.47;61.36;93257.03;5033911;28;20181;-77
2023/09/26 08:27:40;;;;;;;17.10;11.30;;;;;;;20.47;61.71;93257.03;5046818;28;20211;-75
2023/09/26 08:30:08;;;;;;;11.97;9.67;;;;;;;20.48;60.52;93255.91;5030635;28;20190;-75
2023/09/26 08:32:33;;;;;;;12.80;10.53;;;;;;;20.61;61.24;93260.19;5032164;28;20204;-75
2023/09/26 08:34:58;;;;;;;13.15;10.23;;;;;;;20.87;57.51;93256.56;5046648;28;20197;-74
2023/09/26 08:37:24;;;;;;;12.20;9.20;;;;;;;20.98;57.04;93268.38;5046715;28;20233;-75
2023/09/26 08:39:50;;;;;;;11.55;10.45;;;;;;;21.07;55.37;93263.75;5036900;28;20229;-75
2023/09/26 08:42:26;;;;;;;11.95;10.80;;;;;;;21.10;54.87;93273.72;5034510;28;20219;-74
2023/09/26 08:44:51;;;;;;;11.60;10.20;;;;;;;20.73;55.99;93271.97;5035194;28;20228;-75
2023/09/26 08:47:17;;;;;;;12.10;9.90;;;;;;;20.64;56.78;93275.47;5039584;28;20182;-74
2023/09/26 08:49:44;;;;;;;11.10;10.02;;;;;;;20.70;56.83;93282.13;5048342;28;20238;-74
2023/09/26 08:52:09;;;;;;;14.20;9.95;;;;;;;21.07;56.87;93271.72;5047750;28;20214;-77
2023/09/26 08:54:35;;;;;;;23.13;9.95;;;;;;;21.14;56.85;93269.28;5044462;28;20219;-75
2023/09/26 08:57:01;;;;;;;15.80;10.23;;;;;;;21.19;56.47;93261.13;5040244;28;20191;-76
2023/09/26 08:59:31;;;;;;;15.55;10.70;;;;;;;21.49;56.21;93270.50;5041002;28;20240;-75
2023/09/26 09:01:56;;;;;;;11.10;10.02;;;;;;;21.45;55.34;93272.25;5048541;28;20181;-76
2023/09/26 09:04:23;;;;;;;12.13;9.48;;;;;;;21.42;55.26;93270.25;5034856;28;20217;-77
2023/09/26 09:07:00;;;;;;;11.30;10.30;;;;;;;21.29;56.13;93250.09;5044325;28;20201;-74
2023/09/26 09:09:25;;;;;;;10.50;9.48;;;;;;;21.31;57.55;93261.94;5050185;28;20236;-75
2023/09/26 09:11:50;;;;;;;11.38;10.38;;;;;;;21.39;56.59;93268.25;5043687;28;21086;-75
2023/09/26 09:14:31;;;;;;;15.10;9.70;;;;;;;21.44;56.11;93263.53;5038254;28;20289;-75
2023/09/26 09:16:56;;;;;;;11.82;10.13;;;;;;;21.22;56.56;93268.44;5051354;28;20189;-75
2023/09/26 09:19:22;;;;;;;16.85;10.52;;;;;;;21.10;57.31;93273.72;5043439;28;20226;-75
2023/09/26 09:21:47;;;;;;;15.38;10.60;;;;;;;21.01;57.43;93251.78;5062561;28;20782;-75
2023/09/26 09:24:12;;;;;;;14.63;10.30;;;;;;;21.00;57.54;93260.84;5045498;28;20252;-75
2023/09/26 09:26:38;;;;;;;11.25;10.30;;;;;;;21.11;57.64;93267.28;5044502;28;20770;-75
2023/09/26 09:29:16;;;;;;;13.18;10.45;;;;;;;21.01;60.19;93262.41;5037768;28;20230;-75
2023/09/26 09:31:42;;;;;;;15.30;10.75;;;;;;;21.21;58.52;93250.97;5034165;28;20198;-75
2023/09/26 09:34:08;;;;;;;10.75;9.70;;;;;;;21.30;57.39;93259.63;5050427;28;20236;-75
2023/09/26 09:36:33;;;;;;;11.63;10.02;;;;;;;21.28;57.76;93256.50;5052350;28;20191;-75
2023/09/26 09:38:59;;;;;;;11.23;9.98;;;;;;;21.05;58.11;93257.97;5049827;28;20231;-75
2023/09/26 09:41:24;;;;;;;14.20;10.57;;;;;;;21.18;58.50;93263.03;5044453;28;20195;-76
2023/09/26 09:43:49;;;;;;;11.38;10.13;;;;;;;21.24;59.66;93260.94;5036484;28;20226;-75
2023/09/26 09:46:16;;;;;;;12.27;10.27;;;;;;;21.47;58.79;93254.13;5041813;28;20193;-75
2023/09/26 09:48:44;;;;;;;18.88;9.77;;;;;;;21.42;57.64;93262.28;5048559;28;21187;-75
2023/09/26 09:51:14;;;;;;;10.40;9.40;;;;;;;21.17;58.64;93252.72;5034607;28;20194;-75
2023/09/26 09:53:52;;;;;;;14.98;11.18;;;;;;;21.23;57.82;93254.06;5040251;28;20244;-75
2023/09/26 09:56:19;;;;;;;15.13;9.40;;;;;;;21.39;57.96;93254.97;5039937;28;20187;-75
2023/09/26 09:58:50;;;;;;;14.25;10.32;;;;;;;21.31;58.08;93250.56;5051750;28;20224;-76
2023/09/26 10:01:20;;;;;;;10.75;9.82;;;;;;;21.31;57.48;93240.69;5042276;28;20261;-75
2023/09/26 10:03:51;;;;;;;13.55;9.82;;;;;;;21.58;56.61;93247.28;5039792;28;20246;-76
2023/09/26 10:06:17;;;;;;;16.10;10.23;;;;;;;21.81;55.39;93232.47;5046075;28;20183;-74
2023/09/26 10:08:47;;;;;;;17.58;10.80;;;;;;;21.76;54.93;93241.44;5045414;28;20257;-76
2023/09/26 10:11:13;;;;;;;17.88;9.30;;;;;;;21.67;55.19;93243.41;5038609;28;20200;-77
2023/09/26 10:13:40;;;;;;;16.35;11.98;;;;;;;21.55;55.97;93242.63;5041157;28;20226;-77
2023/09/26 10:16:14;;;;;;;10.88;10.02;;;;;;;21.73;56.54;93236.75;5038461;28;20196;-77
2023/09/26 10:18:41;;;;;;;14.20;11.65;;;;;;;21.96;56.18;93218.53;5037260;28;20829;-78
2023/09/26 10:21:27;;;;;;;11.27;10.25;;;;;;;22.66;53.04;93228.66;5045488;28;20243;-75
2023/09/26 10:24:05;;;;;;;13.32;10.10;;;;;;;22.54;54.81;93228.66;5041086;28;20231;-76
2023/09/26 10:26:31;;;;;;;15.50;10.10;;;;;;;22.49;54.76;93214.78;5051640;28;20182;-78
2023/09/26 10:29:21;;;;;;;17.30;14.23;;;;;;;22.33;53.91;93228.03;5036784;28;20236;-78
2023/09/26 10:31:53;;;;;;;11.73;10.25;;;;;;;22.37;53.06;93228.88;5032096;28;20181;-76
2023/09/26 10:34:21;;;;;;;13.65;10.02;;;;;;;22.43;52.07;93216.91;5047608;28;20270;-78
2023/09/26 10:36:47;;;;;;;13.50;10.43;;;;;;;22.68;51.45;93217.66;5048916;28;20191;-77
2023/09/26 10:39:12;;;;;;;11.52;9.18;;;;;;;22.60;51.67;93219.31;5037500;28;20227;-78
2023/09/26 10:41:38;;;;;;;12.18;9.38;;;;;;;22.32;52.73;93205.16;5051415;28;20180;-78
2023/09/26 10:44:04;;;;;;;10.27;8.90;;;;;;;22.35;53.06;93203.75;5040999;28;20267;-78
2023/09/26 10:46:30;;;;;;;12.20;10.10;;;;;;;22.30;54.17;93203.97;5036312;28;20196;-83
2023/09/26 10:48:57;;;;;;;16.75;10.52;;;;;;;22.66;53.51;93210.00;5044896;28;20262;-77
2023/09/26 10:51:23;;;;;;;14.65;10.55;;;;;;;22.70;53.02;93205.53;5038472;28;20189;-78
2023/09/26 10:53:48;;;;;;;23.75;15.50;;;;;;;22.75;52.10;93202.66;5051973;28;20219;-78
2023/09/26 10:56:14;;;;;;;14.73;11.27;;;;;;;22.72;52.74;93189.22;5037293;28;20878;-78
2023/09/26 10:58:44;;;;;;;16.85;11.20;;;;;;;23.00;50.60;93201.44;5049904;28;20250;-78
2023/09/26 11:01:09;;;;;;;11.40;9.88;;;;;;;23.10;49.73;93197.47;5043768;28;20200;-78
2023/09/26 11:03:34;;;;;;;10.52;9.50;;;;;;;23.27;49.91;93197.97;5047614;28;20283;-77
2023/09/26 11:06:01;;;;;;;11.38;9.63;;;;;;;23.30;49.80;93191.97;5047837;28;20184;-77
2023/09/26 11:08:28;;;;;;;10.25;8.95;;;;;;;23.55;49.08;93201.34;5046241;28;20223;-78
2023/09/26 11:10:53;;;;;;;10.70;9.70;;;;;;;23.51;48.96;93203.16;5039124;28;20196;-78
2023/09/26 11:13:21;;;;;;;12.23;9.50;;;;;;;23.30;48.79;93170.63;5043099;28;20873;-78
2023/09/26 11:15:51;;;;;;;11.13;9.98;;;;;;;23.46;49.01;93198.09;5037501;28;20177;-77
2023/09/26 11:18:17;;;;;;;10.55;9.45;;;;;;;23.42;48.84;93201.78;5046348;28;20236;-78